PST,Max TemperatureF,Mean TemperatureF,Min TemperatureF,Max Dew PointF,MeanDew PointF,Min DewpointF,Max Humidity, Mean Humidity, Min Humidity, Max Sea Level PressureIn, Mean Sea Level PressureIn, Min Sea Level PressureIn, Max VisibilityMiles, Mean VisibilityMiles, Min VisibilityMiles, Max Wind SpeedMPH, Mean Wind SpeedMPH, Max Gust SpeedMPH,PrecipitationIn, CloudCover, Events, WindDirDegrees
2013-2-1,51,42,33,45,39,32,100,87,71,30.43,30.40,30.35,10,8,0,7,1,,0.01,4,,331
2013-2-2,42,36,30,39,35,28,100,92,87,30.41,30.33,30.28,10,2,0,9,1,,0.00,8,,155
2013-2-3,46,40,35,43,39,34,93,90,81,30.32,30.27,30.22,10,8,2,9,2,,0.06,8,,142
2013-2-4,48,45,42,43,40,39,93,82,71,30.22,30.08,29.89,10,10,2,10,5,,0.00,7,,136
2013-2-5,50,47,44,41,39,37,87,75,62,29.94,29.86,29.83,10,10,10,25,15,30,0.00,8,,156
2013-2-6,48,45,42,39,37,36,87,74,62,30.05,29.96,29.81,10,10,10,18,13,25,0.00,8,,146
2013-2-7,46,38,28,39,34,27,93,78,57,30.21,30.02,29.81,10,10,4,20,11,25,0.09,5,,132
2013-2-8,42,33,24,36,31,18,100,89,74,30.33,30.29,30.22,10,7,0,5,0,,0.00,8,,315
2013-2-9,42,40,37,39,37,36,100,92,81,30.36,30.31,30.28,10,6,0,0,0,,0.00,8,,-1
2013-2-10,46,37,28,37,33,27,100,84,66,30.40,30.37,30.34,10,7,0,6,1,,0.00,7,,319
2013-2-11,42,40,37,39,37,36,93,89,81,30.38,30.36,30.35,10,9,3,8,1,,0.00,8,,128
2013-2-12,48,44,39,43,41,37,100,87,76,30.42,30.36,30.29,10,9,3,14,3,,0.00,8,,149
2013-2-13,48,44,41,43,40,37,93,83,76,30.52,30.44,30.31,10,10,5,9,2,,0.00,8,,189
2013-2-14,48,44,39,43,40,37,93,84,71,30.58,30.55,30.51,10,10,7,10,3,,0.00,8,,140
2013-2-15,55,42,30,45,38,28,100,83,66,30.57,30.39,30.19,10,7,0,12,2,,0.00,2,,316
2013-2-16,46,39,32,43,37,30,100,85,66,30.21,30.17,30.15,10,7,0,17,2,22,0.07,8,,304
2013-2-17,44,38,33,37,35,30,93,85,70,30.26,30.22,30.14,10,9,1,8,4,,0.06,7,,162
2013-2-18,44,37,30,36,32,28,93,80,66,30.13,29.94,29.78,10,10,1,14,2,,0.00,6,,130
2013-2-19,48,39,28,36,32,27,100,75,53,30.03,29.85,29.77,10,10,0,16,4,21,0.00,3,,335
2013-2-20,44,36,28,37,33,25,93,86,66,30.06,30.04,30.01,10,9,0,13,2,,0.00,7,,129
2013-2-21,42,38,35,37,37,34,93,88,81,30.08,30.05,30.03,10,10,6,15,5,18,0.00,8,,149
2013-2-22,44,40,35,39,36,32,93,84,76,30.05,29.84,29.69,10,10,5,29,14,39,0.08,8,Thunderstorm,156
2013-2-23,46,40,33,39,34,30,93,81,62,30.39,30.17,29.91,10,10,9,21,5,23,0.00,7,,210
2013-2-24,46,42,37,36,35,34,87,74,62,30.39,30.24,29.95,10,10,10,21,11,29,0.00,8,,138
2013-2-25,48,44,39,37,33,28,93,70,50,30.32,30.07,29.90,10,10,10,20,13,30,0.01,7,,220
2013-2-26,46,40,33,36,31,28,87,67,50,30.37,30.29,30.21,10,10,10,20,9,25,0.00,7,,148
2013-2-27,50,42,35,39,36,30,93,77,47,30.32,30.29,30.21,10,10,9,14,6,,0.00,7,,151
2013-2-28,51,48,44,48,46,43,100,88,82,30.30,30.27,30.25,10,10,9,21,9,31,0.00,8,,135